Time;durP1;ratioP1;P1;durP2;ratioP2;P2;SDS_P1;SDS_P2;PMS_P1;PMS_P2;Temp;Humidity;BMP_temperature;BMP_pressure;BME280_temperature;BME280_humidity;BME280_pressure;Samples;Min_cycle;Max_cycle;Signal;HPM_P1;HPM_P2
2023/06/25 00:00:31;;;;;;;12.65;9.90;;;;;;;;;;5111565;28;20097;-82
2023/06/25 00:02:58;;;;;;;17.73;8.50;;;;;;;;;;5111711;28;20086;-83
2023/06/25 00:05:25;;;;;;;9.40;8.50;;;;;;;;;;5111764;28;20535;-84
2023/06/25 00:07:52;;;;;;;10.05;9.05;;;;;;;;;;5111769;28;20395;-83
2023/06/25 00:10:20;;;;;;;11.70;9.35;;;;;;;;;;5111687;28;20104;-83
2023/06/25 00:12:47;;;;;;;11.57;8.68;;;;;;;;;;5112573;28;20043;-83
2023/06/25 00:15:14;;;;;;;9.40;8.50;;;;;;;;;;5112425;28;20120;-84
2023/06/25 00:17:47;;;;;;;13.70;9.00;;;;;;;;;;5115037;28;20048;-83
2023/06/25 00:20:15;;;;;;;10.75;8.00;;;;;;;;;;5116638;28;20054;-83
2023/06/25 00:22:43;;;;;;;8.85;7.95;;;;;;;;;;5115768;28;20048;-84
2023/06/25 00:25:26;;;;;;;13.32;8.70;;;;;;;;;;5116672;28;20452;-83
2023/06/25 00:27:57;;;;;;;11.15;9.95;;;;;;;;;;5116795;28;20074;-83
2023/06/25 00:30:25;;;;;;;14.68;9.63;;;;;;;;;;5115356;28;20562;-84
2023/06/25 00:32:56;;;;;;;12.32;8.55;;;;;;;;;;5114985;28;20102;-84
2023/06/25 00:35:27;;;;;;;9.13;8.20;;;;;;;;;;5116460;28;20122;-83
2023/06/25 00:38:01;;;;;;;10.35;7.97;;;;;;;;;;5116658;28;20449;-84
2023/06/25 00:40:28;;;;;;;12.90;8.50;;;;;;;;;;5116448;28;20051;-84
2023/06/25 00:42:59;;;;;;;10.75;8.77;;;;;;;;;;5116358;28;20096;-84
2023/06/25 00:45:26;;;;;;;10.30;9.23;;;;;;;;;;5115124;28;20539;-83
2023/06/25 00:47:54;;;;;;;10.13;9.07;;;;;;;;;;5114984;28;20055;-83
2023/06/25 00:50:25;;;;;;;10.25;8.25;;;;;;;;;;5114875;28;20462;-83
2023/06/25 00:52:52;;;;;;;9.90;8.90;;;;;;;;;;5115068;28;20052;-83
2023/06/25 00:55:20;;;;;;;9.93;8.88;;;;;;;;;;5116127;28;20079;-83
2023/06/25 00:57:47;;;;;;;9.45;8.05;;;;;;;;;;5116080;28;20051;-83
2023/06/25 01:00:16;;;;;;;10.02;8.38;;;;;;;;;;5114643;28;20047;-83
2023/06/25 01:02:44;;;;;;;14.00;9.10;;;;;;;;;;5114917;28;20052;-83
2023/06/25 01:05:17;;;;;;;9.55;8.63;;;;;;;;;;5115784;27;20082;-83
2023/06/25 01:07:45;;;;;;;11.10;9.15;;;;;;;;;;5114992;28;20137;-83
2023/06/25 01:10:13;;;;;;;12.27;8.85;;;;;;;;;;5115750;28;20048;-83
2023/06/25 01:12:42;;;;;;;12.40;9.80;;;;;;;;;;5114505;28;20460;-83
2023/06/25 01:15:09;;;;;;;11.18;9.50;;;;;;;;;;5115527;28;20503;-83
2023/06/25 01:17:39;;;;;;;11.63;9.32;;;;;;;;;;5114457;28;20081;-84
2023/06/25 01:20:11;;;;;;;10.50;9.38;;;;;;;;;;5115887;28;20480;-83
2023/06/25 01:22:40;;;;;;;11.38;10.07;;;;;;;;;;5114517;28;20047;-83
2023/06/25 01:25:08;;;;;;;12.13;9.43;;;;;;;;;;5114350;28;20050;-83
2023/06/25 01:27:36;;;;;;;12.68;10.27;;;;;;;;;;5114472;28;20450;-83
2023/06/25 01:30:05;;;;;;;11.43;9.25;;;;;;;;;;5113423;28;20052;-83
2023/06/25 01:32:33;;;;;;;10.55;9.50;;;;;;;;;;5114151;28;20051;-83
2023/06/25 01:35:00;;;;;;;10.75;9.68;;;;;;;;;;5115576;28;20059;-83
2023/06/25 01:37:30;;;;;;;10.77;9.70;;;;;;;;;;5115609;28;20381;-83
2023/06/25 01:39:58;;;;;;;12.02;10.73;;;;;;;;;;5115287;28;20051;-83
2023/06/25 01:42:25;;;;;;;15.73;10.15;;;;;;;;;;5115072;27;20488;-81
2023/06/25 01:44:52;;;;;;;13.07;10.10;;;;;;;;;;5114158;28;20096;-83
2023/06/25 01:47:20;;;;;;;10.93;9.85;;;;;;;;;;5114998;28;20055;-83
2023/06/25 01:49:47;;;;;;;11.35;10.15;;;;;;;;;;5113917;28;20488;-83
2023/06/25 01:52:14;;;;;;;13.38;10.25;;;;;;;;;;5114897;28;20488;-83
2023/06/25 01:54:41;;;;;;;11.02;9.55;;;;;;;;;;5114906;28;20056;-83
2023/06/25 01:57:09;;;;;;;12.73;9.18;;;;;;;;;;5114644;27;20055;-83
2023/06/25 01:59:36;;;;;;;13.27;10.10;;;;;;;;;;5113523;28;20516;-83
2023/06/25 02:02:03;;;;;;;12.45;9.20;;;;;;;;;;5113505;28;20075;-83
2023/06/25 02:04:31;;;;;;;10.82;9.68;;;;;;;;;;5114825;28;20052;-83
2023/06/25 02:06:58;;;;;;;15.68;10.35;;;;;;;;;;5114557;28;20398;-83
2023/06/25 02:09:25;;;;;;;10.18;8.95;;;;;;;;;;5113500;28;20199;-84
2023/06/25 02:11:52;;;;;;;14.00;10.35;;;;;;;;;;5114465;28;20047;-83
2023/06/25 02:14:20;;;;;;;13.13;10.02;;;;;;;;;;5113286;28;20557;-83
2023/06/25 02:16:47;;;;;;;15.00;10.85;;;;;;;;;;5113630;28;20040;-83
2023/06/25 02:19:14;;;;;;;14.52;10.10;;;;;;;;;;5114443;28;20388;-83
2023/06/25 02:21:41;;;;;;;14.02;9.98;;;;;;;;;;5114178;28;20069;-83
2023/06/25 02:24:09;;;;;;;11.20;9.98;;;;;;;;;;5113073;28;20051;-84
2023/06/25 02:26:36;;;;;;;12.35;10.02;;;;;;;;;;5113214;28;20051;-83
2023/06/25 02:29:03;;;;;;;12.30;10.38;;;;;;;;;;5114344;28;20412;-84
2023/06/25 02:31:30;;;;;;;15.38;10.88;;;;;;;;;;5112625;28;20051;-84
2023/06/25 02:33:58;;;;;;;13.93;11.43;;;;;;;;;;5114007;28;20059;-83
2023/06/25 02:36:25;;;;;;;11.88;10.77;;;;;;;;;;5112449;28;20047;-84
2023/06/25 02:38:52;;;;;;;13.70;10.93;;;;;;;;;;5112952;28;20079;-84
2023/06/25 02:41:19;;;;;;;11.45;10.38;;;;;;;;;;5112681;28;20035;-83
2023/06/25 02:43:46;;;;;;;12.45;11.20;;;;;;;;;;5112597;28;20114;-84
2023/06/25 02:46:14;;;;;;;12.93;10.98;;;;;;;;;;5113791;28;20097;-83
2023/06/25 02:48:42;;;;;;;11.68;10.48;;;;;;;;;;5112569;28;20044;-83
2023/06/25 02:51:10;;;;;;;10.50;9.40;;;;;;;;;;5112524;28;20532;-83
2023/06/25 02:53:37;;;;;;;11.98;10.73;;;;;;;;;;5112322;28;20070;-83
2023/06/25 02:56:05;;;;;;;11.57;10.35;;;;;;;;;;5112281;28;20048;-83
2023/06/25 02:58:32;;;;;;;12.57;10.48;;;;;;;;;;5114004;28;20433;-83
2023/06/25 03:00:59;;;;;;;11.50;10.30;;;;;;;;;;5113281;28;20104;-83
2023/06/25 03:03:29;;;;;;;12.32;10.93;;;;;;;;;;5113464;28;20048;-83
2023/06/25 03:05:56;;;;;;;12.32;10.65;;;;;;;;;;5112295;28;20048;-83
2023/06/25 03:08:26;;;;;;;12.73;11.18;;;;;;;;;;5112296;28;20055;-83
2023/06/25 03:10:53;;;;;;;11.82;10.07;;;;;;;;;;5112128;28;20083;-83
2023/06/25 03:13:20;;;;;;;12.82;11.05;;;;;;;;;;5112110;28;20052;-83
2023/06/25 03:15:47;;;;;;;13.18;10.45;;;;;;;;;;5112219;28;20047;-83
2023/06/25 03:18:15;;;;;;;16.13;11.75;;;;;;;;;;5111816;28;20047;-83
2023/06/25 03:20:42;;;;;;;14.50;11.68;;;;;;;;;;5113213;28;20039;-83
2023/06/25 03:23:09;;;;;;;15.55;11.75;;;;;;;;;;5111920;28;20507;-83
2023/06/25 03:25:36;;;;;;;12.07;10.68;;;;;;;;;;5113305;28;20102;-83
2023/06/25 03:28:04;;;;;;;17.52;12.07;;;;;;;;;;5112158;28;20441;-83
2023/06/25 03:30:31;;;;;;;14.63;11.52;;;;;;;;;;5111859;28;20491;-83
2023/06/25 03:33:01;;;;;;;15.73;11.40;;;;;;;;;;5111416;28;20090;-83
2023/06/25 03:35:28;;;;;;;16.33;12.32;;;;;;;;;;5113138;28;20062;-83
2023/06/25 03:37:55;;;;;;;15.48;11.75;;;;;;;;;;5113168;28;20044;-83
2023/06/25 03:40:22;;;;;;;18.20;11.85;;;;;;;;;;5111886;28;20099;-83
2023/06/25 03:42:50;;;;;;;15.93;11.55;;;;;;;;;;5112909;28;20052;-83
2023/06/25 03:45:17;;;;;;;14.93;11.68;;;;;;;;;;5112667;28;20050;-82
2023/06/25 03:47:44;;;;;;;11.43;10.23;;;;;;;;;;5111856;28;20105;-84
2023/06/25 03:50:11;;;;;;;12.70;10.85;;;;;;;;;;5111681;28;20043;-83
2023/06/25 03:52:39;;;;;;;11.43;10.27;;;;;;;;;;5115628;28;20465;-84
2023/06/25 03:55:06;;;;;;;11.70;10.57;;;;;;;;;;5119729;27;20043;-83
2023/06/25 03:57:33;;;;;;;11.93;10.55;;;;;;;;;;5118300;28;20039;-83
2023/06/25 04:00:01;;;;;;;11.13;10.15;;;;;;;;;;5119638;27;20112;-83
2023/06/25 04:02:28;;;;;;;12.25;10.40;;;;;;;;;;5118519;28;20044;-83
2023/06/25 04:04:55;;;;;;;12.10;10.90;;;;;;;;;;5118519;28;20541;-83
2023/06/25 04:07:22;;;;;;;13.43;10.48;;;;;;;;;;5118019;28;20048;-83
2023/06/25 04:09:50;;;;;;;12.45;10.77;;;;;;;;;;5119684;27;20143;-83
2023/06/25 04:12:17;;;;;;;11.55;10.35;;;;;;;;;;5118236;28;20092;-83
2023/06/25 04:14:44;;;;;;;14.93;11.50;;;;;;;;;;5119168;27;20150;-83
2023/06/25 04:17:11;;;;;;;12.60;11.30;;;;;;;;;;5119667;27;20047;-83
2023/06/25 04:19:38;;;;;;;11.98;10.70;;;;;;;;;;5118152;28;20487;-83
2023/06/25 04:22:06;;;;;;;13.55;11.45;;;;;;;;;;5118329;28;20040;-83
2023/06/25 04:24:33;;;;;;;11.70;10.43;;;;;;;;;;5119023;27;20101;-83
2023/06/25 04:27:00;;;;;;;14.20;11.40;;;;;;;;;;5118108;28;20503;-83
2023/06/25 04:29:28;;;;;;;12.07;10.25;;;;;;;;;;5118288;28;20047;-83
2023/06/25 04:31:55;;;;;;;12.60;10.60;;;;;;;;;;5118036;28;20063;-83
2023/06/25 04:34:22;;;;;;;15.75;11.63;;;;;;;;;;5118012;28;20059;-83
2023/06/25 04:36:50;;;;;;;11.13;9.70;;;;;;;;;;5119144;27;20116;-83
2023/06/25 04:39:17;;;;;;;11.57;10.38;;;;;;;;;;5117704;28;20454;-83
2023/06/25 04:41:44;;;;;;;12.77;9.90;;;;;;;;;;5119109;27;20040;-83
2023/06/25 04:44:11;;;;;;;10.65;9.65;;;;;;;;;;5119227;27;20058;-83
2023/06/25 04:46:39;;;;;;;11.90;9.82;;;;;;;;;;5117546;28;20043;-83
2023/06/25 04:49:06;;;;;;;15.13;9.63;;;;;;;;;;5117692;28;20047;-83
2023/06/25 04:51:34;;;;;;;9.35;8.57;;;;;;;;;;5117117;28;20499;-83
2023/06/25 04:54:02;;;;;;;11.90;8.90;;;;;;;;;;5119011;27;20056;-83
2023/06/25 04:56:29;;;;;;;12.80;8.50;;;;;;;;;;5118042;28;20336;-84
2023/06/25 04:58:56;;;;;;;8.05;7.35;;;;;;;;;;5118378;28;20071;-83
2023/06/25 05:01:23;;;;;;;8.43;7.60;;;;;;;;;;5117721;28;20051;-83
2023/06/25 05:03:51;;;;;;;8.48;7.60;;;;;;;;;;5117540;27;20372;-83
2023/06/25 05:06:18;;;;;;;7.82;7.13;;;;;;;;;;5114412;28;20134;-83
2023/06/25 05:08:45;;;;;;;7.68;6.88;;;;;;;;;;5116015;28;20144;-83
2023/06/25 05:11:12;;;;;;;6.43;5.82;;;;;;;;;;5116023;28;20116;-83
2023/06/25 05:13:39;;;;;;;6.00;5.47;;;;;;;;;;5114330;28;20082;-83
2023/06/25 05:16:07;;;;;;;6.00;5.50;;;;;;;;;;5115641;28;20043;-83
2023/06/25 05:18:34;;;;;;;5.28;4.78;;;;;;;;;;5114735;28;20048;-83
2023/06/25 05:21:01;;;;;;;5.53;5.03;;;;;;;;;;5114361;28;20047;-83
2023/06/25 05:23:37;;;;;;;6.25;4.85;;;;;;;;;;5114507;28;20105;-83
2023/06/25 05:26:05;;;;;;;4.78;4.38;;;;;;;;;;5114308;28;20071;-83
2023/06/25 05:28:32;;;;;;;5.40;4.90;;;;;;;;;;5114351;28;20108;-83
2023/06/25 05:31:01;;;;;;;5.63;4.72;;;;;;;;;;5114185;28;20134;-83
2023/06/25 05:33:28;;;;;;;4.78;4.28;;;;;;;;;;5114992;28;20055;-83
2023/06/25 05:35:55;;;;;;;4.68;4.28;;;;;;;;;;5114333;28;20067;-83
2023/06/25 05:38:22;;;;;;;4.95;4.40;;;;;;;;;;5115378;28;20490;-83
2023/06/25 05:40:50;;;;;;;6.15;4.28;;;;;;;;;;5114186;28;20043;-83
2023/06/25 05:43:17;;;;;;;4.13;3.88;;;;;;;;;;5114120;28;20100;-83
2023/06/25 05:45:44;;;;;;;5.95;4.45;;;;;;;;;;5114137;28;20044;-84
2023/06/25 05:48:11;;;;;;;4.03;3.72;;;;;;;;;;5114267;28;20047;-83
2023/06/25 05:50:38;;;;;;;5.85;4.43;;;;;;;;;;5114004;28;20087;-83
2023/06/25 05:53:06;;;;;;;4.70;4.25;;;;;;;;;;5113776;28;20130;-83
2023/06/25 05:55:33;;;;;;;4.30;3.90;;;;;;;;;;5115132;28;20105;-83
2023/06/25 05:58:00;;;;;;;4.53;4.07;;;;;;;;;;5114096;28;20069;-83
2023/06/25 06:00:28;;;;;;;4.38;3.97;;;;;;;;;;5114925;27;20051;-83
2023/06/25 06:02:55;;;;;;;4.68;4.30;;;;;;;;;;5113556;28;20100;-83
2023/06/25 06:05:22;;;;;;;4.80;4.40;;;;;;;;;;5115035;28;20052;-83
2023/06/25 06:07:50;;;;;;;4.40;4.10;;;;;;;;;;5114733;28;20048;-83
2023/06/25 06:10:17;;;;;;;4.18;3.97;;;;;;;;;;5113578;28;20039;-83
2023/06/25 06:12:44;;;;;;;4.15;3.85;;;;;;;;;;5114587;28;20100;-83
2023/06/25 06:15:11;;;;;;;4.00;3.80;;;;;;;;;;5114007;28;20412;-83
2023/06/25 06:17:39;;;;;;;5.10;3.63;;;;;;;;;;5113493;28;20047;-83
2023/06/25 06:20:06;;;;;;;4.22;3.83;;;;;;;;;;5114757;28;20055;-83
2023/06/25 06:22:33;;;;;;;5.18;4.00;;;;;;;;;;5114393;28;20537;-83
2023/06/25 06:25:01;;;;;;;4.60;3.70;;;;;;;;;;5112987;28;20492;-83
2023/06/25 06:27:28;;;;;;;5.35;4.13;;;;;;;;;;5113507;28;20105;-83
2023/06/25 06:29:55;;;;;;;3.97;3.67;;;;;;;;;;5114526;28;20576;-83
2023/06/25 06:32:22;;;;;;;4.70;3.70;;;;;;;;;;5113909;28;20473;-83
2023/06/25 06:34:49;;;;;;;4.10;3.80;;;;;;;;;;5112697;28;20130;-83
2023/06/25 06:37:17;;;;;;;5.55;4.05;;;;;;;;;;5112912;28;20054;-83
2023/06/25 06:39:44;;;;;;;3.72;3.53;;;;;;;;;;5113569;28;20088;-82
2023/06/25 06:42:13;;;;;;;6.30;3.72;;;;;;;;;;5110728;28;20101;-83
2023/06/25 06:44:41;;;;;;;3.95;3.70;;;;;;;;;;5112335;28;20051;-84
2023/06/25 06:47:08;;;;;;;4.10;3.70;;;;;;;;;;5112870;28;20077;-83
2023/06/25 06:49:35;;;;;;;5.20;3.55;;;;;;;;;;5114101;28;20047;-83
2023/06/25 06:52:02;;;;;;;4.10;3.80;;;;;;;;;;5112455;28;20043;-83
2023/06/25 06:54:30;;;;;;;3.70;3.50;;;;;;;;;;5114274;28;20502;-82
2023/06/25 06:56:57;;;;;;;3.85;3.50;;;;;;;;;;5113856;28;20453;-83
2023/06/25 06:59:24;;;;;;;3.88;3.58;;;;;;;;;;5112388;28;20048;-84
2023/06/25 07:01:51;;;;;;;5.50;3.80;;;;;;;;;;5113678;28;20047;-83
2023/06/25 07:04:19;;;;;;;4.35;4.05;;;;;;;;;;5112293;28;20062;-83
2023/06/25 07:06:46;;;;;;;4.90;3.90;;;;;;;;;;5113741;28;20545;-83
2023/06/25 07:09:13;;;;;;;3.90;3.60;;;;;;;;;;5112353;28;20144;-83
2023/06/25 07:11:40;;;;;;;3.75;3.45;;;;;;;;;;5113545;28;20096;-82
2023/06/25 07:14:07;;;;;;;4.07;3.78;;;;;;;;;;5113305;28;20043;-83
2023/06/25 07:16:35;;;;;;;4.15;3.78;;;;;;;;;;5113554;28;20051;-83
2023/06/25 07:19:02;;;;;;;3.85;3.55;;;;;;;;;;5113297;28;20484;-83
2023/06/25 07:21:30;;;;;;;3.38;3.13;;;;;;;;;;5113424;28;20108;-84
2023/06/25 07:23:57;;;;;;;4.20;3.13;;;;;;;;;;5113480;28;20108;-84
2023/06/25 07:26:24;;;;;;;3.92;3.63;;;;;;;;;;5112563;28;20475;-84
2023/06/25 07:28:51;;;;;;;3.90;3.53;;;;;;;;;;5113149;28;20549;-83
2023/06/25 07:31:19;;;;;;;3.40;3.20;;;;;;;;;;5113261;28;20048;-84
2023/06/25 07:33:46;;;;;;;4.18;3.17;;;;;;;;;;5112083;28;20092;-83
2023/06/25 07:36:13;;;;;;;3.17;2.97;;;;;;;;;;5112010;28;20060;-83
2023/06/25 07:38:41;;;;;;;4.40;3.20;;;;;;;;;;5113326;28;20510;-83
2023/06/25 07:41:08;;;;;;;3.38;3.08;;;;;;;;;;5111803;28;20471;-83
2023/06/25 07:43:35;;;;;;;2.80;2.70;;;;;;;;;;5113316;28;20047;-85
2023/06/25 07:46:02;;;;;;;2.85;2.75;;;;;;;;;;5113186;28;20484;-83
2023/06/25 07:48:30;;;;;;;3.13;2.58;;;;;;;;;;5113189;28;20074;-84
2023/06/25 07:50:57;;;;;;;2.92;2.53;;;;;;;;;;5112033;28;20117;-83
2023/06/25 07:53:24;;;;;;;3.20;2.90;;;;;;;;;;5113073;28;20441;-84
2023/06/25 07:55:51;;;;;;;2.60;2.40;;;;;;;;;;5112684;28;20075;-83
2023/06/25 07:58:30;;;;;;;2.53;2.42;;;;;;;;;;5112046;28;20051;-82
2023/06/25 08:00:57;;;;;;;3.72;2.83;;;;;;;;;;5111919;28;20055;-84
2023/06/25 08:03:25;;;;;;;2.70;2.50;;;;;;;;;;5113334;28;20075;-83
2023/06/25 08:05:52;;;;;;;3.70;2.80;;;;;;;;;;5112964;28;20055;-84
2023/06/25 08:08:19;;;;;;;2.90;2.70;;;;;;;;;;5113015;28;20051;-85
2023/06/25 08:10:51;;;;;;;3.17;2.97;;;;;;;;;;5111914;28;20465;-85
2023/06/25 08:13:18;;;;;;;2.75;2.60;;;;;;;;;;5111919;28;20091;-91
2023/06/25 08:15:45;;;;;;;2.80;2.60;;;;;;;;;;5112039;28;20052;-85
2023/06/25 08:18:13;;;;;;;2.97;2.70;;;;;;;;;;5111952;28;20553;-83
2023/06/25 08:20:41;;;;;;;3.20;2.75;;;;;;;;;;5112559;28;20043;-83
2023/06/25 08:23:08;;;;;;;2.88;2.67;;;;;;;;;;5111702;28;20058;-84
2023/06/25 08:25:35;;;;;;;3.75;2.35;;;;;;;;;;5112951;28;20097;-83
2023/06/25 08:28:03;;;;;;;3.13;2.28;;;;;;;;;;5111644;28;20502;-83
2023/06/25 08:30:30;;;;;;;2.20;2.10;;;;;;;;;;5111932;28;20051;-83
2023/06/25 08:32:58;;;;;;;2.33;2.22;;;;;;;;;;5112971;28;20055;-84
2023/06/25 08:35:25;;;;;;;2.30;2.20;;;;;;;;;;5112511;28;20085;-84
2023/06/25 08:37:52;;;;;;;2.75;2.50;;;;;;;;;;5112281;28;20551;-85
2023/06/25 08:40:19;;;;;;;3.45;2.33;;;;;;;;;;5115600;28;20078;-86
2023/06/25 08:42:46;;;;;;;2.08;1.98;;;;;;;;;;5115511;28;20088;-84
2023/06/25 08:45:17;;;;;;;3.33;2.40;;;;;;;;;;5115464;28;20516;-84
2023/06/25 08:47:46;;;;;;;2.47;2.17;;;;;;;;;;5115084;28;20100;-87
2023/06/25 08:50:13;;;;;;;2.45;2.25;;;;;;;;;;5115627;28;20055;-85
2023/06/25 08:52:40;;;;;;;2.60;2.17;;;;;;;;;;5115439;28;20108;-85
2023/06/25 08:55:11;;;;;;;3.63;2.30;;;;;;;;;;5115250;28;20044;-84
2023/06/25 08:57:39;;;;;;;3.17;2.30;;;;;;;;;;5115315;28;20048;-84
2023/06/25 09:00:07;;;;;;;2.65;2.50;;;;;;;;;;5114918;28;20048;-84
2023/06/25 09:02:34;;;;;;;2.40;2.10;;;;;;;;;;5113175;28;20600;-83
2023/06/25 09:05:13;;;;;;;2.83;2.63;;;;;;;;;;5094735;28;20481;-84
2023/06/25 09:07:43;;;;;;;4.70;2.63;;;;;;;;;;5095461;28;20055;-84
2023/06/25 09:10:11;;;;;;;2.58;2.38;;;;;;;;;;5093978;28;20105;-86
2023/06/25 09:12:38;;;;;;;2.40;2.30;;;;;;;;;;5094176;28;20496;-84
2023/06/25 09:15:06;;;;;;;3.70;2.70;;;;;;;;;;5093990;28;20459;-88
2023/06/25 09:17:35;;;;;;;2.38;2.17;;;;;;;;;;5093766;28;20052;-85
2023/06/25 09:20:06;;;;;;;2.67;2.40;;;;;;;;;;5095834;28;20052;-85
2023/06/25 09:22:33;;;;;;;2.30;2.20;;;;;;;;;;5094615;28;20056;-85
2023/06/25 09:25:01;;;;;;;2.15;2.05;;;;;;;;;;5094552;28;20048;-84
2023/06/25 09:27:28;;;;;;;2.40;2.20;;;;;;;;;;5094406;28;20488;-85
2023/06/25 09:29:58;;;;;;;2.47;2.35;;;;;;;;;;5094383;28;20102;-85
2023/06/25 09:32:25;;;;;;;2.60;2.50;;;;;;;;;;5094129;28;20381;-83
2023/06/25 09:34:52;;;;;;;2.25;2.08;;;;;;;;;;5094149;28;20492;-87
2023/06/25 09:37:20;;;;;;;2.28;2.13;;;;;;;;;;5094368;28;20110;-85
2023/06/25 09:39:48;;;;;;;3.13;2.28;;;;;;;;;;5094500;28;20048;-89
2023/06/25 09:42:19;;;;;;;2.90;2.70;;;;;;;;;;5094311;28;20454;-88
2023/06/25 09:44:46;;;;;;;2.28;2.17;;;;;;;;;;5094391;28;20105;-87
2023/06/25 09:47:17;;;;;;;2.45;2.28;;;;;;;;;;5094526;28;20047;-85
2023/06/25 09:49:44;;;;;;;2.00;1.90;;;;;;;;;;5093054;28;20105;-90
2023/06/25 09:52:15;;;;;;;3.45;2.20;;;;;;;;;;5094590;28;20048;-87
2023/06/25 09:54:43;;;;;;;2.00;1.90;;;;;;;;;;5093881;28;20051;-85
2023/06/25 09:57:14;;;;;;;2.40;2.30;;;;;;;;;;5094134;28;20099;-87
2023/06/25 09:59:42;;;;;;;2.42;2.22;;;;;;;;;;5095017;28;20135;-88
2023/06/25 10:02:09;;;;;;;2.08;1.92;;;;;;;;;;5093829;28;20101;-87
2023/06/25 10:04:37;;;;;;;2.22;2.13;;;;;;;;;;5094531;28;20044;-89
2023/06/25 10:07:05;;;;;;;2.28;2.08;;;;;;;;;;5094438;28;20140;-87
2023/06/25 10:09:33;;;;;;;4.15;2.10;;;;;;;;;;5092518;28;20075;-86
2023/06/25 10:12:00;;;;;;;2.40;2.30;;;;;;;;;;5093672;28;20048;-86
2023/06/25 10:14:37;;;;;;;2.25;2.15;;;;;;;;;;5093266;28;20480;-84
2023/06/25 10:17:05;;;;;;;2.17;2.08;;;;;;;;;;5093717;28;20439;-85
2023/06/25 10:19:33;;;;;;;2.40;2.30;;;;;;;;;;5093430;28;20135;-85
2023/06/25 10:22:15;;;;;;;2.22;2.13;;;;;;;;;;5093563;28;20052;-86
2023/06/25 10:24:43;;;;;;;3.72;2.20;;;;;;;;;;5094143;28;20397;-86
2023/06/25 10:27:25;;;;;;;2.40;2.20;;;;;;;;;;5113897;28;20051;-86
2023/06/25 10:29:53;;;;;;;2.10;2.00;;;;;;;;;;5113864;28;20058;-90
2023/06/25 10:32:21;;;;;;;1.85;1.75;;;;;;;;;;5113859;28;20082;-85
2023/06/25 10:34:53;;;;;;;2.08;1.98;;;;;;;;;;5113873;28;20453;-85
2023/06/25 10:37:21;;;;;;;1.80;1.80;;;;;;;;;;5113665;28;20056;-85
2023/06/25 10:39:48;;;;;;;2.85;2.30;;;;;;;;;;5113692;28;20047;-85
2023/06/25 10:42:15;;;;;;;2.00;1.90;;;;;;;;;;5113584;28;20055;-86
2023/06/25 10:44:42;;;;;;;2.00;1.90;;;;;;;;;;5113677;28;20051;-86
2023/06/25 10:47:10;;;;;;;2.28;2.17;;;;;;;;;;5113671;28;20430;-88
2023/06/25 10:49:38;;;;;;;2.60;2.38;;;;;;;;;;5114122;28;20415;-86
2023/06/25 10:52:05;;;;;;;2.33;2.13;;;;;;;;;;5113794;28;20068;-89
2023/06/25 10:54:33;;;;;;;2.30;2.20;;;;;;;;;;5113540;28;20458;-87
2023/06/25 10:57:13;;;;;;;3.33;2.42;;;;;;;;;;5114129;28;20047;-87
2023/06/25 10:59:44;;;;;;;2.70;2.50;;;;;;;;;;5113755;28;20557;-90
2023/06/25 11:02:19;;;;;;;2.63;2.03;;;;;;;;;;5113638;28;20044;-88
2023/06/25 11:04:51;;;;;;;2.22;2.13;;;;;;;;;;5113432;28;20403;-86
2023/06/25 11:07:19;;;;;;;2.58;2.22;;;;;;;;;;5112642;28;20044;-86
2023/06/25 11:09:50;;;;;;;2.55;2.35;;;;;;;;;;5113226;28;20047;-86
2023/06/25 11:12:18;;;;;;;2.45;2.35;;;;;;;;;;5112945;28;20051;-89
2023/06/25 11:14:51;;;;;;;2.35;2.25;;;;;;;;;;5113244;28;20071;-93
2023/06/25 11:17:19;;;;;;;2.42;2.28;;;;;;;;;;5113366;28;20100;-87
2023/06/25 11:19:53;;;;;;;2.35;2.25;;;;;;;;;;5112962;28;20052;-86
2023/06/25 11:22:20;;;;;;;3.75;2.40;;;;;;;;;;5113372;28;20073;-88
2023/06/25 11:24:49;;;;;;;2.53;2.40;;;;;;;;;;5112933;28;20104;-88
2023/06/25 11:27:26;;;;;;;2.55;2.35;;;;;;;;;;5112025;28;20056;-86
2023/06/25 11:29:54;;;;;;;2.45;2.35;;;;;;;;;;5112833;28;20055;-87
2023/06/25 11:32:23;;;;;;;2.83;2.58;;;;;;;;;;5113254;28;20113;-90
2023/06/25 11:34:55;;;;;;;2.30;2.20;;;;;;;;;;5112974;28;20070;-86
2023/06/25 11:37:23;;;;;;;2.42;2.33;;;;;;;;;;5112308;28;20048;-85
2023/06/25 11:39:51;;;;;;;2.35;2.25;;;;;;;;;;5112471;28;20044;-85
2023/06/25 11:42:19;;;;;;;2.42;2.33;;;;;;;;;;5112677;28;20075;-86
2023/06/25 11:44:58;;;;;;;2.40;2.30;;;;;;;;;;5112903;28;20092;-87
2023/06/25 11:47:25;;;;;;;2.88;2.78;;;;;;;;;;5112778;28;20051;-86
2023/06/25 11:49:54;;;;;;;2.58;2.38;;;;;;;;;;5113522;28;20131;-85
2023/06/25 11:52:21;;;;;;;2.83;2.63;;;;;;;;;;5113925;28;20071;-87
2023/06/25 11:54:49;;;;;;;2.78;2.63;;;;;;;;;;5112644;28;20056;-85
2023/06/25 11:57:17;;;;;;;2.70;2.60;;;;;;;;;;5112279;28;20043;-86
2023/06/25 11:59:44;;;;;;;3.28;2.88;;;;;;;;;;5112547;28;20102;-89
2023/06/25 12:02:12;;;;;;;2.72;2.53;;;;;;;;;;5112628;28;20105;-86
2023/06/25 12:04:39;;;;;;;2.72;2.53;;;;;;;;;;5112589;28;20048;-86
2023/06/25 12:07:07;;;;;;;2.83;2.63;;;;;;;;;;5113333;28;20048;-85
2023/06/25 12:09:35;;;;;;;3.28;3.05;;;;;;;;;;5112545;28;20051;-85
2023/06/25 12:12:02;;;;;;;3.47;3.17;;;;;;;;;;5112163;28;20152;-87
2023/06/25 12:14:29;;;;;;;3.17;2.83;;;;;;;;;;5115368;28;20132;-85
2023/06/25 12:16:56;;;;;;;2.92;2.80;;;;;;;;;;5115954;28;20043;-85
2023/06/25 12:19:24;;;;;;;2.78;2.58;;;;;;;;;;5116383;28;20062;-86
2023/06/25 12:21:51;;;;;;;3.40;2.80;;;;;;;;;;5116110;28;20047;-88
2023/06/25 12:24:18;;;;;;;3.20;3.00;;;;;;;;;;5117761;28;20043;-92
2023/06/25 12:26:46;;;;;;;5.03;2.70;;;;;;;;;;5116142;28;20055;-90
2023/06/25 12:29:13;;;;;;;2.80;2.65;;;;;;;;;;5116290;28;20047;-91
2023/06/25 12:31:40;;;;;;;4.25;3.08;;;;;;;;;;5116072;28;20056;-88
2023/06/25 16:46:03;;;;;;;2.95;2.78;;;;;;;;;;5940475;23;20790;-81
2023/06/25 16:48:30;;;;;;;3.03;2.83;;;;;;;;;;4930086;29;20562;-80
2023/06/25 16:50:58;;;;;;;2.70;2.60;;;;;;;;;;4936363;29;20059;-82
2023/06/25 16:53:25;;;;;;;3.00;2.90;;;;;;;;;;4936414;29;20079;-81
2023/06/25 16:55:52;;;;;;;3.13;2.88;;;;;;;;;;4953435;29;20113;-81
2023/06/25 16:58:19;;;;;;;3.17;2.97;;;;;;;;;;4936542;29;20464;-81
2023/06/25 17:00:47;;;;;;;3.33;3.08;;;;;;;;;;4956685;28;20051;-81
2023/06/25 17:03:14;;;;;;;5.72;3.08;;;;;;;;;;4957141;29;20062;-81
2023/06/25 17:05:42;;;;;;;3.20;3.00;;;;;;;;;;4939786;29;20085;-81
2023/06/25 17:08:10;;;;;;;3.72;3.20;;;;;;;;;;4939226;29;20059;-81
2023/06/25 17:10:37;;;;;;;4.15;2.90;;;;;;;;;;4939857;29;20054;-81
2023/06/25 17:13:04;;;;;;;3.50;3.28;;;;;;;;;;4957037;29;20105;-81
2023/06/25 17:15:31;;;;;;;3.05;2.90;;;;;;;;;;4956767;29;20094;-82
2023/06/25 17:17:59;;;;;;;3.20;3.00;;;;;;;;;;4939334;29;20055;-82
2023/06/25 17:20:26;;;;;;;3.40;3.20;;;;;;;;;;4939526;29;20217;-81
2023/06/25 17:22:53;;;;;;;3.80;3.13;;;;;;;;;;4956655;29;20043;-82
2023/06/25 17:25:20;;;;;;;3.13;2.92;;;;;;;;;;4939887;29;20400;-83
2023/06/25 17:27:47;;;;;;;2.78;2.67;;;;;;;;;;4956801;29;20487;-81
2023/06/25 17:30:15;;;;;;;3.20;3.00;;;;;;;;;;4956505;29;20048;-81
2023/06/25 17:32:42;;;;;;;3.50;3.30;;;;;;;;;;4939129;29;20488;-81
2023/06/25 17:35:09;;;;;;;2.85;2.70;;;;;;;;;;4956284;29;20051;-82
2023/06/25 17:37:37;;;;;;;3.53;3.30;;;;;;;;;;4939284;29;20107;-81
2023/06/25 17:40:04;;;;;;;3.17;3.00;;;;;;;;;;4939466;29;20093;-81
2023/06/25 17:42:31;;;;;;;3.00;2.80;;;;;;;;;;4939311;29;20055;-81
2023/06/25 17:44:59;;;;;;;3.47;3.17;;;;;;;;;;4939244;29;20055;-81
2023/06/25 17:47:28;;;;;;;3.50;3.20;;;;;;;;;;4956002;29;20055;-82
2023/06/25 17:49:55;;;;;;;3.65;3.25;;;;;;;;;;4956348;29;20419;-81
2023/06/25 17:52:22;;;;;;;3.67;3.38;;;;;;;;;;4939487;29;20443;-81
2023/06/25 17:54:50;;;;;;;2.90;2.80;;;;;;;;;;4939112;29;20404;-80
2023/06/25 17:57:17;;;;;;;3.60;3.30;;;;;;;;;;4956173;29;20055;-81
2023/06/25 17:59:44;;;;;;;3.55;3.33;;;;;;;;;;4939047;29;20102;-81
2023/06/25 18:02:11;;;;;;;3.40;3.20;;;;;;;;;;4955736;29;20055;-80
2023/06/25 18:04:42;;;;;;;3.08;2.88;;;;;;;;;;4956184;29;20043;-81
2023/06/25 18:07:11;;;;;;;3.10;2.90;;;;;;;;;;4956106;29;20051;-81
2023/06/25 18:09:38;;;;;;;3.28;3.08;;;;;;;;;;4956257;29;20047;-81
2023/06/25 18:12:05;;;;;;;2.95;2.83;;;;;;;;;;4955088;28;20106;-81
2023/06/25 18:14:33;;;;;;;3.35;2.92;;;;;;;;;;4938746;29;20112;-81
2023/06/25 18:17:01;;;;;;;3.53;3.17;;;;;;;;;;4955779;29;20554;-81
2023/06/25 18:19:28;;;;;;;2.83;2.63;;;;;;;;;;4953624;29;20051;-81
2023/06/25 18:21:55;;;;;;;3.00;2.80;;;;;;;;;;4954765;29;20047;-81
2023/06/25 18:24:23;;;;;;;3.47;3.17;;;;;;;;;;4938038;29;20051;-81
2023/06/25 18:26:50;;;;;;;3.15;2.85;;;;;;;;;;4937524;29;20500;-81
2023/06/25 18:29:17;;;;;;;3.30;3.08;;;;;;;;;;4937887;29;20110;-80
2023/06/25 18:31:45;;;;;;;3.15;2.80;;;;;;;;;;4937741;29;20050;-81
2023/06/25 18:34:16;;;;;;;3.33;3.13;;;;;;;;;;4954533;29;20535;-81
2023/06/25 18:36:45;;;;;;;4.25;3.20;;;;;;;;;;4954530;29;20098;-81
2023/06/25 18:39:13;;;;;;;3.78;3.58;;;;;;;;;;4954456;29;20046;-81
2023/06/25 18:41:40;;;;;;;3.80;3.35;;;;;;;;;;4937314;29;20047;-81
2023/06/25 18:44:07;;;;;;;3.67;3.47;;;;;;;;;;4954666;29;20094;-81
2023/06/25 18:46:36;;;;;;;3.42;3.22;;;;;;;;;;4954583;29;20055;-81
2023/06/25 18:49:03;;;;;;;4.05;3.58;;;;;;;;;;4920960;29;20067;-81
2023/06/25 18:51:31;;;;;;;3.53;3.22;;;;;;;;;;4918208;29;20492;-81